Time;durP1;ratioP1;P1;durP2;ratioP2;P2;SDS_P1;SDS_P2;PMS_P1;PMS_P2;Temp;Humidity;BMP_temperature;BMP_pressure;BME280_temperature;BME280_humidity;BME280_pressure;Samples;Min_cycle;Max_cycle;Signal;HPM_P1;HPM_P2
2022/04/23 00:04:24;;;;;;;6.50;3.05;;;9.80;99.90;;;;;;6306018;22;20053;-84
2022/04/23 00:06:50;;;;;;;7.00;3.13;;;9.80;99.90;;;;;;6280966;22;20016;-85
2022/04/23 00:09:16;;;;;;;5.78;3.38;;;10.10;99.90;;;;;;6276861;22;20385;-84
2022/04/23 00:11:42;;;;;;;7.13;3.03;;;9.70;99.90;;;;;;6276974;22;20020;-84
2022/04/23 00:14:07;;;;;;;6.85;3.47;;;9.70;99.90;;;;;;6249428;22;20481;-84
2022/04/23 00:16:33;;;;;;;6.18;3.53;;;10.20;99.90;;;;;;6249291;22;20031;-84
2022/04/23 00:18:59;;;;;;;7.00;3.70;;;9.60;99.90;;;;;;6249406;22;20026;-84
2022/04/23 00:21:25;;;;;;;5.07;3.35;;;9.60;99.90;;;;;;6276414;22;20508;-85
2022/04/23 00:23:51;;;;;;;7.15;3.70;;;9.70;99.90;;;;;;6276693;22;20016;-84
2022/04/23 00:26:17;;;;;;;8.23;3.70;;;10.40;99.90;;;;;;6249287;22;20046;-84
2022/04/23 00:28:42;;;;;;;6.95;3.25;;;9.60;99.90;;;;;;6249211;22;20406;-84
2022/04/23 00:31:08;;;;;;;6.32;3.13;;;8.80;99.90;;;;;;6276548;22;20019;-85
2022/04/23 00:33:38;;;;;;;7.50;3.55;;;9.50;99.90;;;;;;6276375;22;20023;-85
2022/04/23 00:36:05;;;;;;;6.63;3.65;;;9.40;99.90;;;;;;6276511;22;20023;-84
2022/04/23 00:38:33;;;;;;;6.95;3.50;;;9.40;99.90;;;;;;6249519;22;20465;-84
2022/04/23 00:40:59;;;;;;;8.00;3.58;;;9.40;99.90;;;;;;6276412;22;20020;-84
2022/04/23 00:43:25;;;;;;;9.13;4.00;;;10.20;99.90;;;;;;6249301;22;20063;-84
2022/04/23 00:45:51;;;;;;;8.15;3.33;;;10.10;99.90;;;;;;6276607;22;20050;-84
2022/04/23 00:48:17;;;;;;;6.47;3.20;;;10.00;99.90;;;;;;6276895;22;20019;-84
2022/04/23 00:50:43;;;;;;;4.45;2.47;;;9.30;99.90;;;;;;6249737;22;20464;-84
2022/04/23 00:53:09;;;;;;;4.25;3.10;;;9.30;99.90;;;;;;6276802;22;20381;-84
2022/04/23 00:55:36;;;;;;;5.03;2.72;;;9.20;99.90;;;;;;6276792;22;20338;-84
2022/04/23 00:58:02;;;;;;;4.90;3.13;;;9.80;99.90;;;;;;6276679;22;20020;-84
2022/04/23 01:00:28;;;;;;;6.18;3.38;;;9.30;99.90;;;;;;6276158;22;20383;-84
2022/04/23 01:02:55;;;;;;;3.17;2.47;;;9.10;99.90;;;;;;6276182;22;20015;-84
2022/04/23 01:05:24;;;;;;;5.82;2.67;;;9.80;99.90;;;;;;6265216;22;20020;-84
2022/04/23 01:07:52;;;;;;;4.18;2.92;;;9.00;99.90;;;;;;6307386;22;20023;-84
2022/04/23 01:10:19;;;;;;;8.13;3.53;;;9.20;99.90;;;;;;6307604;22;20019;-84
2022/04/23 01:12:45;;;;;;;7.63;3.40;;;9.10;99.90;;;;;;6307107;22;20026;-84
2022/04/23 01:15:13;;;;;;;6.30;3.28;;;9.90;99.90;;;;;;6307294;22;20069;-84
2022/04/23 01:17:40;;;;;;;6.13;3.55;;;8.90;99.90;;;;;;6307206;22;20019;-84
2022/04/23 01:20:07;;;;;;;6.15;3.47;;;9.00;99.90;;;;;;6307666;22;20019;-84
2022/04/23 01:22:33;;;;;;;5.68;3.20;;;8.90;99.90;;;;;;6279634;22;20479;-84
2022/04/23 01:25:00;;;;;;;6.07;3.55;;;9.20;99.90;;;;;;6307209;22;20041;-85
2022/04/23 01:27:31;;;;;;;6.43;3.17;;;9.20;99.90;;;;;;6307263;22;20011;-84
2022/04/23 01:29:56;;;;;;;5.25;3.15;;;8.80;99.90;;;;;;6253433;22;20031;-84
2022/04/23 01:32:22;;;;;;;8.05;4.68;;;9.40;99.90;;;;;;6306462;22;20202;-83
2022/04/23 01:34:49;;;;;;;7.88;3.67;;;8.90;99.90;;;;;;6279495;22;20026;-84
2022/04/23 01:37:17;;;;;;;7.43;4.15;;;9.20;99.90;;;;;;6307236;22;20015;-84
2022/04/23 01:39:44;;;;;;;9.27;4.35;;;8.80;99.90;;;;;;6307174;22;20027;-84
2022/04/23 01:42:10;;;;;;;7.72;4.22;;;9.60;99.90;;;;;;6307184;22;20174;-84
2022/04/23 01:44:36;;;;;;;8.45;5.00;;;9.10;99.90;;;;;;6279344;22;20102;-84
2022/04/23 01:47:02;;;;;;;8.45;4.70;;;9.20;99.90;;;;;;6307428;22;20011;-84
2022/04/23 01:49:27;;;;;;;7.55;4.65;;;9.00;99.90;;;;;;6306876;22;20019;-84
2022/04/23 01:51:53;;;;;;;7.70;5.03;;;9.10;99.90;;;;;;6279293;22;20028;-84
2022/04/23 01:54:19;;;;;;;9.77;5.57;;;9.00;99.90;;;;;;6280228;22;20025;-85
2022/04/23 01:56:44;;;;;;;9.82;5.57;;;9.20;99.90;;;;;;6279266;22;20438;-84
2022/04/23 01:59:10;;;;;;;10.75;6.32;;;9.60;99.90;;;;;;6307268;22;20025;-85
2022/04/23 02:01:36;;;;;;;10.50;4.90;;;9.70;99.90;;;;;;6306432;22;20016;-84
2022/04/23 02:04:03;;;;;;;12.35;5.57;;;8.70;99.90;;;;;;6307134;22;20086;-84
2022/04/23 02:06:29;;;;;;;10.73;6.10;;;9.00;99.90;;;;;;6254098;22;20039;-86
2022/04/23 02:08:56;;;;;;;9.88;5.72;;;9.10;99.90;;;;;;6307107;22;20097;-84
2022/04/23 02:11:22;;;;;;;11.73;5.95;;;9.90;99.90;;;;;;6307080;22;20019;-84
2022/04/23 02:13:47;;;;;;;7.93;4.80;;;9.10;99.90;;;;;;6307551;22;20049;-86
2022/04/23 02:16:13;;;;;;;13.07;5.32;;;9.10;99.90;;;;;;6307476;22;20027;-84
2022/04/23 02:18:39;;;;;;;10.57;4.97;;;9.10;99.90;;;;;;6307751;22;20019;-84
2022/04/23 02:21:05;;;;;;;9.40;5.13;;;9.10;99.90;;;;;;6279753;22;20019;-84
2022/04/23 02:23:32;;;;;;;12.80;5.80;;;9.10;99.90;;;;;;6307469;22;20137;-83
2022/04/23 02:25:58;;;;;;;10.23;4.88;;;9.60;99.90;;;;;;6307330;22;20015;-84
2022/04/23 02:28:24;;;;;;;11.70;5.68;;;9.40;99.90;;;;;;6254402;22;20023;-84
2022/04/23 02:30:50;;;;;;;9.27;5.95;;;9.20;99.90;;;;;;6281094;22;20102;-84
2022/04/23 02:33:15;;;;;;;9.80;4.90;;;9.40;99.90;;;;;;6295141;22;20020;-84
2022/04/23 02:35:41;;;;;;;9.55;6.20;;;9.30;99.90;;;;;;6327110;22;20016;-85
2022/04/23 02:38:07;;;;;;;11.43;5.63;;;8.90;99.90;;;;;;6297592;22;20019;-84
2022/04/23 02:40:34;;;;;;;10.27;5.05;;;9.90;99.90;;;;;;6280564;22;20509;-84
2022/04/23 02:43:03;;;;;;;9.30;5.03;;;8.90;99.90;;;;;;6306663;22;20023;-84
2022/04/23 02:45:29;;;;;;;9.57;5.00;;;9.10;99.90;;;;;;6308566;22;20047;-84
2022/04/23 02:47:57;;;;;;;7.40;4.47;;;9.30;99.90;;;;;;6281203;22;20026;-84
2022/04/23 02:50:28;;;;;;;7.15;4.70;;;9.40;99.90;;;;;;6309489;22;20408;-85
2022/04/23 02:52:57;;;;;;;8.23;5.05;;;8.80;99.90;;;;;;6308377;22;20026;-84
2022/04/23 02:55:28;;;;;;;8.65;5.03;;;8.80;99.90;;;;;;6308778;22;20058;-85
2022/04/23 02:57:56;;;;;;;8.85;5.28;;;8.80;99.90;;;;;;6308718;22;20330;-84
2022/04/23 03:00:22;;;;;;;9.32;4.90;;;8.80;99.90;;;;;;6308733;22;20022;-85
2022/04/23 03:02:48;;;;;;;8.80;5.20;;;9.30;99.90;;;;;;6281079;22;20349;-84
2022/04/23 03:05:14;;;;;;;6.50;4.05;;;8.70;99.90;;;;;;6280933;22;20011;-84
2022/04/23 03:07:41;;;;;;;7.38;4.47;;;8.70;99.90;;;;;;6308400;22;20468;-84
2022/04/23 03:10:08;;;;;;;6.18;4.35;;;8.10;99.90;;;;;;6308653;22;20446;-84
2022/04/23 03:12:38;;;;;;;8.35;4.72;;;8.60;99.90;;;;;;6308270;22;20061;-85
2022/04/23 03:15:10;;;;;;;7.63;3.78;;;8.60;99.90;;;;;;6308175;22;20019;-84
2022/04/23 03:17:36;;;;;;;8.25;4.75;;;8.50;99.90;;;;;;6308632;22;20023;-84
2022/04/23 03:20:09;;;;;;;9.93;4.82;;;8.80;99.90;;;;;;6281056;22;20319;-84
2022/04/23 03:22:39;;;;;;;8.50;5.50;;;8.50;99.90;;;;;;6280970;22;20019;-84
2022/04/23 03:25:06;;;;;;;7.80;4.28;;;8.50;99.90;;;;;;6280563;22;20016;-85
2022/04/23 03:27:32;;;;;;;7.95;4.78;;;8.50;99.90;;;;;;6308547;22;20023;-84
2022/04/23 03:29:59;;;;;;;8.32;4.50;;;9.00;99.90;;;;;;6280962;22;20015;-84
2022/04/23 03:32:25;;;;;;;9.50;5.05;;;8.70;99.90;;;;;;6308394;22;20021;-84
2022/04/23 03:34:51;;;;;;;7.88;5.13;;;8.50;99.90;;;;;;6307852;22;20019;-84
2022/04/23 03:37:17;;;;;;;7.88;3.97;;;9.00;99.90;;;;;;6280414;22;20065;-84
2022/04/23 03:39:44;;;;;;;7.65;4.75;;;8.50;99.90;;;;;;6280713;22;20029;-84
2022/04/23 03:42:10;;;;;;;12.27;5.00;;;8.40;99.90;;;;;;6308336;22;20011;-84
2022/04/23 03:44:36;;;;;;;10.70;5.10;;;8.40;99.90;;;;;;6280462;22;20023;-84
2022/04/23 03:47:02;;;;;;;11.73;5.82;;;7.90;99.90;;;;;;6307906;22;20021;-85
2022/04/23 03:49:32;;;;;;;9.55;5.10;;;8.40;99.90;;;;;;6308384;22;20064;-90
2022/04/23 03:51:58;;;;;;;8.60;5.63;;;8.50;99.90;;;;;;6308148;22;20015;-86
2022/04/23 03:54:24;;;;;;;8.27;5.30;;;8.40;99.90;;;;;;6255514;22;20027;-84
2022/04/23 03:56:50;;;;;;;12.68;6.78;;;9.20;99.90;;;;;;6307900;22;20080;-84
2022/04/23 03:59:20;;;;;;;7.72;5.32;;;8.40;99.90;;;;;;6308248;22;20015;-84
2022/04/23 04:01:47;;;;;;;10.45;5.70;;;8.60;99.90;;;;;;6307450;22;20449;-84
2022/04/23 04:04:14;;;;;;;8.48;5.13;;;7.50;99.90;;;;;;6307698;22;20465;-84
2022/04/23 04:06:41;;;;;;;10.32;5.85;;;9.30;99.90;;;;;;6280294;22;20020;-84
2022/04/23 04:09:07;;;;;;;9.77;5.35;;;8.30;99.90;;;;;;6307467;22;20019;-84
2022/04/23 04:12:01;;;;;;;7.43;5.45;;;9.10;99.90;;;;;;6307511;22;20353;-85
2022/04/23 04:14:19;;;;;;;8.80;5.25;;;8.30;99.90;;;;;;6280281;22;20058;-85
2022/04/23 04:16:46;;;;;;;9.27;5.32;;;8.30;99.90;;;;;;6308264;22;20015;-84
2022/04/23 04:19:14;;;;;;;8.05;5.45;;;8.70;99.90;;;;;;6279919;22;20453;-85
2022/04/23 04:21:44;;;;;;;10.02;5.72;;;9.00;99.90;;;;;;6308316;22;20058;-85
2022/04/23 04:24:13;;;;;;;9.40;5.65;;;8.10;99.90;;;;;;6308983;22;20015;-84
2022/04/23 04:26:41;;;;;;;10.45;5.75;;;8.50;99.90;;;;;;6307986;22;20050;-84
2022/04/23 04:29:08;;;;;;;10.02;5.25;;;8.20;99.90;;;;;;6307881;22;20015;-84
2022/04/23 04:31:47;;;;;;;9.30;5.35;;;8.20;99.90;;;;;;6307282;22;20023;-84
2022/04/23 04:34:17;;;;;;;8.13;5.40;;;8.10;99.90;;;;;;6307904;22;20019;-84
2022/04/23 04:36:43;;;;;;;9.90;5.88;;;8.10;99.90;;;;;;6307917;22;20098;-84
2022/04/23 04:39:09;;;;;;;9.95;6.18;;;8.10;99.90;;;;;;6307334;22;20015;-84
2022/04/23 04:41:35;;;;;;;9.02;6.50;;;8.60;99.90;;;;;;6307464;22;20011;-84
2022/04/23 04:44:02;;;;;;;10.38;7.38;;;8.30;99.90;;;;;;6280175;22;20015;-84
2022/04/23 04:46:28;;;;;;;11.30;6.15;;;8.50;99.90;;;;;;6307835;22;20354;-84
2022/04/23 04:48:54;;;;;;;8.93;5.03;;;6.50;99.90;;;;;;6307355;22;20021;-84
2022/04/23 04:51:19;;;;;;;10.48;5.60;;;8.10;99.90;;;;;;6307655;22;20094;-84
2022/04/23 04:53:45;;;;;;;9.00;6.05;;;8.10;99.90;;;;;;6279878;22;20438;-84
2022/04/23 04:56:11;;;;;;;8.77;5.50;;;9.00;99.90;;;;;;6307497;22;20023;-84
2022/04/23 04:58:37;;;;;;;9.35;5.40;;;7.00;99.90;;;;;;6307732;22;20316;-84
2022/04/23 05:01:03;;;;;;;9.10;5.47;;;8.60;99.90;;;;;;6306923;22;20123;-84
2022/04/23 05:03:29;;;;;;;7.70;5.10;;;8.60;99.90;;;;;;6307675;22;20015;-84
2022/04/23 05:05:55;;;;;;;8.20;4.97;;;9.10;99.90;;;;;;6285064;22;20023;-84
2022/04/23 05:08:20;;;;;;;10.32;5.32;;;9.00;99.90;;;;;;6314199;22;20401;-84
2022/04/23 05:10:47;;;;;;;8.10;5.63;;;8.10;99.90;;;;;;6307217;22;20072;-83
2022/04/23 05:13:13;;;;;;;11.48;6.60;;;9.00;99.90;;;;;;6307178;22;20065;-83
2022/04/23 05:15:39;;;;;;;12.43;5.82;;;8.90;99.90;;;;;;6307528;22;20341;-84
2022/04/23 05:18:04;;;;;;;10.57;5.30;;;8.60;99.90;;;;;;6307178;22;20020;-85
2022/04/23 05:20:30;;;;;;;11.15;6.53;;;8.20;99.90;;;;;;6307539;22;20023;-83
2022/04/23 05:22:56;;;;;;;9.32;5.35;;;8.70;99.90;;;;;;6307312;22;20037;-84
2022/04/23 05:25:22;;;;;;;9.63;6.25;;;8.30;99.90;;;;;;6279697;22;20019;-84
2022/04/23 05:27:47;;;;;;;7.55;5.18;;;8.80;99.90;;;;;;6307451;22;20386;-85
2022/04/23 05:30:13;;;;;;;9.90;6.03;;;8.40;99.90;;;;;;6279498;22;20042;-84
2022/04/23 05:32:39;;;;;;;11.95;6.03;;;8.70;99.90;;;;;;6279136;22;20399;-83
2022/04/23 05:35:05;;;;;;;9.48;5.55;;;8.50;99.90;;;;;;6307188;22;20016;-84
2022/04/23 05:37:31;;;;;;;13.85;6.85;;;8.50;99.90;;;;;;6307129;22;20023;-85
2022/04/23 05:39:56;;;;;;;10.27;5.97;;;8.90;99.90;;;;;;6306574;22;20326;-84
2022/04/23 05:42:22;;;;;;;8.25;6.07;;;8.60;99.90;;;;;;6306999;22;20029;-83
2022/04/23 05:44:48;;;;;;;8.45;5.32;;;9.40;99.90;;;;;;6307220;22;20020;-84
2022/04/23 05:47:13;;;;;;;9.60;6.72;;;9.30;99.90;;;;;;6306880;22;20023;-85
2022/04/23 05:49:39;;;;;;;8.30;5.40;;;8.80;99.90;;;;;;6279371;22;20023;-85
2022/04/23 05:52:05;;;;;;;9.32;6.05;;;9.40;99.90;;;;;;6279636;22;20023;-84
2022/04/23 05:54:31;;;;;;;10.43;6.60;;;9.00;99.90;;;;;;6306703;22;20023;-86
2022/04/23 05:56:56;;;;;;;8.00;5.30;;;9.10;99.90;;;;;;6279289;22;20324;-84
2022/04/23 05:59:25;;;;;;;11.65;6.00;;;10.00;99.90;;;;;;6307150;22;20046;-85
2022/04/23 06:01:51;;;;;;;10.88;6.82;;;9.30;99.90;;;;;;6306898;22;20311;-85
2022/04/23 06:04:16;;;;;;;9.63;6.68;;;10.30;99.90;;;;;;6279530;22;20057;-85
2022/04/23 06:06:42;;;;;;;10.60;7.07;;;9.50;99.90;;;;;;6306780;22;20349;-85
2022/04/23 06:09:08;;;;;;;10.20;6.90;;;9.60;99.90;;;;;;6279928;22;20020;-84
2022/04/23 06:11:34;;;;;;;8.77;6.40;;;10.50;99.90;;;;;;6279656;22;20461;-86
2022/04/23 06:14:01;;;;;;;11.60;7.03;;;9.90;99.90;;;;;;6307188;22;20054;-86
2022/04/23 06:16:26;;;;;;;8.23;5.95;;;9.80;99.90;;;;;;6307422;22;20023;-85
2022/04/23 06:18:52;;;;;;;14.75;6.90;;;9.90;99.90;;;;;;6281329;22;20027;-89
2022/04/23 06:21:19;;;;;;;9.82;6.38;;;10.10;99.90;;;;;;6282948;22;20030;-87
2022/04/23 06:23:44;;;;;;;9.45;5.80;;;10.20;99.90;;;;;;6282318;22;20145;-87
2022/04/23 06:26:10;;;;;;;10.32;6.50;;;10.30;99.90;;;;;;6282344;22;20046;-88
2022/04/23 06:28:36;;;;;;;10.93;6.28;;;10.60;99.90;;;;;;6310189;22;20015;-84
2022/04/23 06:31:02;;;;;;;11.32;6.28;;;10.80;99.90;;;;;;6282863;22;20073;-85
2022/04/23 06:33:27;;;;;;;10.45;7.63;;;10.60;99.90;;;;;;6281987;22;20090;-85
2022/04/23 06:35:53;;;;;;;10.13;7.13;;;10.70;99.90;;;;;;6310323;22;20019;-85
2022/04/23 06:38:18;;;;;;;8.68;6.00;;;10.80;99.90;;;;;;6284712;22;20027;-86
2022/04/23 06:40:44;;;;;;;10.15;7.03;;;11.00;99.90;;;;;;6312441;22;20405;-87
2022/04/23 06:43:10;;;;;;;12.35;7.45;;;11.00;99.90;;;;;;6282085;22;20412;-85
2022/04/23 06:45:35;;;;;;;20.08;8.93;;;11.10;99.90;;;;;;6309413;22;20446;-87
2022/04/23 06:48:04;;;;;;;10.35;6.85;;;12.00;99.90;;;;;;6308704;22;20053;-85
2022/04/23 06:50:31;;;;;;;14.88;7.53;;;11.30;99.90;;;;;;6309198;22;20089;-87
2022/04/23 06:53:01;;;;;;;9.98;6.10;;;11.40;99.90;;;;;;6256194;22;20084;-89
2022/04/23 06:55:28;;;;;;;9.90;6.45;;;11.40;99.90;;;;;;6308802;22;20019;-89
2022/04/23 06:57:53;;;;;;;14.25;7.65;;;11.50;99.90;;;;;;6308706;22;20492;-87
2022/04/23 07:00:22;;;;;;;11.73;8.15;;;11.80;99.90;;;;;;6308695;22;20116;-89
2022/04/23 07:02:49;;;;;;;10.48;7.07;;;11.70;99.90;;;;;;6308942;22;20015;-86
2022/04/23 07:05:14;;;;;;;9.02;6.45;;;11.70;99.90;;;;;;6281337;22;20424;-88
2022/04/23 07:07:41;;;;;;;9.65;7.15;;;11.70;99.90;;;;;;6308651;22;20058;-89
2022/04/23 07:10:07;;;;;;;11.10;7.28;;;12.10;99.90;;;;;;6281279;22;20086;-88
2022/04/23 07:12:33;;;;;;;11.85;7.65;;;12.10;99.90;;;;;;6308832;22;20077;-87
2022/04/23 07:15:00;;;;;;;9.38;6.63;;;12.50;99.90;;;;;;6281828;22;20019;-87
2022/04/23 07:17:26;;;;;;;9.82;6.40;;;12.20;99.90;;;;;;6280892;22;20130;-88
2022/04/23 07:19:55;;;;;;;10.38;6.00;;;12.30;99.90;;;;;;6308622;22;20516;-87
2022/04/23 07:22:21;;;;;;;9.63;6.70;;;12.30;99.90;;;;;;6309216;22;20030;-86
2022/04/23 07:24:49;;;;;;;11.13;6.72;;;12.40;99.90;;;;;;6308914;22;20355;-87
2022/04/23 07:27:14;;;;;;;8.63;6.30;;;12.70;99.90;;;;;;6308698;22;20077;-86
2022/04/23 07:29:40;;;;;;;8.05;5.95;;;12.60;99.90;;;;;;6308504;22;20015;-86
2022/04/23 07:32:06;;;;;;;9.80;6.30;;;12.60;99.90;;;;;;6280965;22;20023;-86
2022/04/23 07:37:28;;;;;;;10.93;6.93;;;12.80;99.90;;;;;;6309048;22;20094;-87
2022/04/23 07:40:05;;;;;;;8.30;6.13;;;12.90;99.90;;;;;;6280984;22;20023;-86
2022/04/23 07:42:32;;;;;;;8.75;5.50;;;13.00;99.90;;;;;;6282340;22;20022;-85
2022/04/23 07:44:58;;;;;;;10.18;5.93;;;13.10;99.90;;;;;;6323468;22;20353;-85
2022/04/23 07:47:24;;;;;;;8.63;6.57;;;13.20;99.90;;;;;;6284098;22;20019;-86
2022/04/23 07:49:50;;;;;;;10.30;6.60;;;13.20;99.90;;;;;;6308842;22;20011;-87
2022/04/23 07:52:16;;;;;;;9.80;5.90;;;13.60;99.90;;;;;;6281401;22;20048;-87
2022/04/23 07:54:43;;;;;;;10.35;6.35;;;13.40;99.90;;;;;;6307811;22;20509;-85
2022/04/23 07:57:10;;;;;;;10.38;6.32;;;13.40;99.90;;;;;;6280664;22;20015;-87
2022/04/23 07:59:41;;;;;;;10.35;6.70;;;13.50;99.90;;;;;;6308397;22;20019;-86
2022/04/23 08:02:08;;;;;;;10.00;6.50;;;13.50;99.90;;;;;;6280497;22;20077;-85
2022/04/23 08:04:34;;;;;;;10.60;6.47;;;13.60;99.90;;;;;;6307871;22;20116;-85
2022/04/23 08:07:00;;;;;;;10.55;6.55;;;14.20;99.90;;;;;;6308103;22;20029;-86
2022/04/23 08:09:25;;;;;;;7.63;6.15;;;13.70;99.90;;;;;;6254504;22;20098;-85
2022/04/23 08:11:51;;;;;;;9.60;6.78;;;13.70;99.90;;;;;;6307960;22;20023;-86
2022/04/23 08:14:17;;;;;;;10.18;7.03;;;13.80;99.90;;;;;;6255125;22;20322;-86
2022/04/23 08:16:49;;;;;;;11.50;7.15;;;13.90;99.90;;;;;;6308257;22;20065;-85
2022/04/23 08:19:17;;;;;;;9.00;6.07;;;14.00;99.90;;;;;;6308164;22;20029;-86
2022/04/23 08:21:43;;;;;;;10.68;6.43;;;14.10;99.90;;;;;;6307915;22;20027;-85
2022/04/23 08:24:09;;;;;;;10.55;6.95;;;14.10;99.90;;;;;;6307953;22;20069;-85
2022/04/23 08:26:34;;;;;;;8.73;6.63;;;14.20;99.90;;;;;;6307693;22;20092;-86
2022/04/23 08:31:45;;;;;;;14.38;6.72;;;14.30;99.90;;;;;;6307139;22;20021;-85
2022/04/23 08:34:12;;;;;;;8.02;5.57;;;14.30;99.90;;;;;;6307614;22;20089;-86
2022/04/23 08:36:39;;;;;;;9.63;6.75;;;14.50;99.90;;;;;;6307526;22;20019;-85
2022/04/23 08:39:06;;;;;;;11.40;6.75;;;14.50;99.90;;;;;;6307789;22;20059;-87
2022/04/23 08:41:34;;;;;;;10.38;6.90;;;14.60;99.90;;;;;;6279839;22;20035;-88
2022/04/23 08:44:05;;;;;;;7.93;6.10;;;14.60;99.90;;;;;;6275648;22;20076;-85
2022/04/23 08:46:39;;;;;;;9.00;6.13;;;14.50;99.90;;;;;;6254212;22;20023;-86
2022/04/23 08:49:10;;;;;;;9.35;5.80;;;14.60;99.90;;;;;;6307725;22;20024;-86
2022/04/23 08:51:38;;;;;;;8.32;6.07;;;14.80;99.90;;;;;;6280223;22;20054;-85
2022/04/23 08:54:08;;;;;;;9.07;5.55;;;14.90;99.90;;;;;;6307607;22;20019;-87
2022/04/23 08:56:36;;;;;;;8.20;6.10;;;15.00;99.90;;;;;;6279935;22;20029;-87
2022/04/23 08:59:02;;;;;;;9.38;6.20;;;15.10;99.90;;;;;;6279990;22;20019;-86
2022/04/23 09:01:31;;;;;;;7.70;6.00;;;15.20;99.90;;;;;;6279968;22;20019;-87
2022/04/23 09:03:58;;;;;;;9.55;5.50;;;15.30;99.90;;;;;;6279388;22;20445;-85
2022/04/23 09:06:27;;;;;;;7.97;5.53;;;15.20;99.50;;;;;;6254392;22;20154;-85
2022/04/23 09:09:17;;;;;;;7.70;5.38;;;15.30;99.80;;;;;;6280299;22;20479;-85
2022/04/23 09:11:52;;;;;;;8.10;5.22;;;15.50;99.90;;;;;;6307130;22;20409;-85
2022/04/23 09:14:36;;;;;;;7.85;4.50;;;15.50;98.30;;;;;;6279581;22;20034;-85
2022/04/23 09:25:30;;;;;;;9.52;6.25;;;15.40;98.00;;;;;;6307062;22;20037;-85
2022/04/23 09:28:11;;;;;;;6.88;5.60;;;15.40;98.50;;;;;;6307047;22;20029;-85
2022/04/23 09:30:37;;;;;;;8.13;5.50;;;15.40;98.40;;;;;;6279593;22;20019;-84
2022/04/23 09:33:03;;;;;;;7.95;5.40;;;15.50;98.50;;;;;;6306878;22;20041;-84
2022/04/23 09:35:28;;;;;;;8.13;5.45;;;15.60;98.40;;;;;;6307196;22;20015;-85
2022/04/23 09:38:12;;;;;;;8.07;5.38;;;15.60;98.50;;;;;;6279647;22;20027;-85
2022/04/23 09:40:38;;;;;;;9.00;5.80;;;15.80;98.50;;;;;;6279640;22;20047;-84
2022/04/23 09:43:11;;;;;;;8.60;5.65;;;15.70;97.70;;;;;;6279509;22;20023;-85
2022/04/23 09:45:43;;;;;;;7.43;5.22;;;15.70;99.20;;;;;;6279559;22;20023;-86
2022/04/23 09:48:12;;;;;;;8.13;5.63;;;15.80;99.10;;;;;;6279418;22;20484;-85
2022/04/23 09:50:38;;;;;;;7.38;5.57;;;15.80;98.00;;;;;;6307234;22;20015;-85
2022/04/23 09:53:15;;;;;;;7.97;6.30;;;15.90;98.60;;;;;;6306562;22;20353;-84
2022/04/23 09:55:41;;;;;;;7.20;5.70;;;16.00;98.20;;;;;;6279549;22;20513;-84
2022/04/23 09:58:08;;;;;;;8.93;5.13;;;16.10;98.00;;;;;;6306793;22;20030;-85
2022/04/23 10:01:00;;;;;;;7.47;5.78;;;16.10;98.80;;;;;;6306562;22;20015;-85
2022/04/23 10:03:33;;;;;;;7.72;5.15;;;16.20;97.70;;;;;;6274228;22;20019;-84
2022/04/23 10:06:00;;;;;;;9.82;5.40;;;16.20;98.10;;;;;;6279436;22;20025;-85
2022/04/23 10:08:34;;;;;;;7.15;4.72;;;16.30;96.40;;;;;;6280075;22;20019;-85
2022/04/23 10:11:03;;;;;;;6.72;4.40;;;16.30;97.20;;;;;;6294446;22;20007;-85
2022/04/23 10:13:30;;;;;;;5.20;3.92;;;16.40;95.70;;;;;;6279959;22;20027;-84
2022/04/23 10:15:58;;;;;;;5.38;3.72;;;16.50;94.00;;;;;;6307043;22;20038;-84
2022/04/23 10:18:24;;;;;;;5.80;4.25;;;16.50;92.40;;;;;;6279595;22;20326;-84
2022/04/23 10:20:56;;;;;;;5.03;3.40;;;16.60;92.70;;;;;;6307106;22;20026;-84
2022/04/23 10:23:58;;;;;;;5.05;3.78;;;16.80;92.60;;;;;;6307310;22;20054;-84
2022/04/23 10:26:42;;;;;;;7.22;4.22;;;16.70;91.20;;;;;;6307363;22;20019;-85
2022/04/23 10:29:16;;;;;;;6.30;3.22;;;16.70;92.00;;;;;;6279990;22;20441;-84
2022/04/23 10:31:42;;;;;;;5.28;3.97;;;16.90;92.80;;;;;;6279752;22;20023;-84
2022/04/23 10:34:42;;;;;;;5.45;3.80;;;17.00;92.90;;;;;;6279500;22;20055;-85
2022/04/23 10:37:40;;;;;;;4.88;3.30;;;17.10;92.40;;;;;;6182887;23;20029;-84
2022/04/23 10:40:06;;;;;;;6.93;3.28;;;17.10;92.80;;;;;;6101175;23;20029;-85
2022/04/23 10:42:32;;;;;;;5.80;3.95;;;17.00;92.10;;;;;;6104547;23;20101;-85
2022/04/23 10:45:06;;;;;;;5.50;4.20;;;17.10;89.30;;;;;;6123980;23;20401;-85
2022/04/23 10:47:39;;;;;;;6.82;4.20;;;17.10;90.20;;;;;;6123211;23;20022;-84
2022/04/23 10:50:22;;;;;;;5.10;3.88;;;17.10;90.00;;;;;;6123088;23;20029;-85
2022/04/23 10:52:54;;;;;;;3.83;3.03;;;17.20;90.10;;;;;;6122834;23;20033;-85
2022/04/23 10:55:21;;;;;;;5.28;3.72;;;17.20;89.10;;;;;;6122828;23;20018;-85
2022/04/23 10:57:50;;;;;;;6.05;3.47;;;17.20;87.20;;;;;;6123091;23;20149;-84
2022/04/23 11:00:20;;;;;;;5.20;3.70;;;17.20;88.10;;;;;;6122667;23;20022;-85
2022/04/23 11:02:56;;;;;;;4.65;3.03;;;17.30;90.20;;;;;;6122673;23;20552;-85
2022/04/23 11:13:55;;;;;;;7.38;3.13;;;17.40;86.50;;;;;;6243848;23;20024;-84
2022/04/23 11:16:26;;;;;;;4.82;3.03;;;17.50;83.30;;;;;;6238669;22;20112;-85
2022/04/23 11:18:53;;;;;;;3.78;2.80;;;17.60;83.60;;;;;;6308437;22;20019;-84
2022/04/23 11:21:24;;;;;;;3.65;2.83;;;17.70;84.80;;;;;;6281113;22;20102;-84
2022/04/23 11:23:51;;;;;;;3.88;2.88;;;17.60;81.30;;;;;;6280840;22;20023;-84
2022/04/23 11:26:22;;;;;;;5.15;3.15;;;17.80;82.40;;;;;;6308365;22;20046;-85
2022/04/23 11:28:58;;;;;;;4.25;2.70;;;17.80;81.70;;;;;;6308128;22;20019;-85
2022/04/23 11:31:24;;;;;;;3.55;2.20;;;17.90;81.80;;;;;;6280647;22;20086;-85
2022/04/23 11:33:58;;;;;;;4.95;2.67;;;18.00;84.10;;;;;;6280875;22;20052;-85
2022/04/23 11:36:29;;;;;;;3.63;2.20;;;17.90;81.20;;;;;;6308238;22;20098;-85
2022/04/23 11:38:59;;;;;;;4.43;2.58;;;18.10;84.00;;;;;;6280774;22;20026;-85
2022/04/23 11:41:36;;;;;;;6.72;3.17;;;18.10;78.20;;;;;;6308415;22;20106;-85
2022/04/23 11:44:45;;;;;;;11.38;2.45;;;18.20;77.20;;;;;;6308457;22;20055;-84
2022/04/23 11:47:12;;;;;;;3.00;1.92;;;18.30;75.90;;;;;;6280422;22;20086;-84
2022/04/23 11:49:38;;;;;;;2.80;2.33;;;18.50;76.70;;;;;;6308063;22;20376;-84
2022/04/23 11:52:07;;;;;;;3.55;2.03;;;18.50;77.10;;;;;;6308208;22;20380;-85
2022/04/23 11:54:38;;;;;;;4.53;2.10;;;18.50;73.40;;;;;;6280534;22;20027;-85
2022/04/23 11:57:07;;;;;;;4.30;2.70;;;18.40;73.50;;;;;;6308174;22;20012;-85
2022/04/23 11:59:39;;;;;;;2.47;1.90;;;18.60;74.10;;;;;;6280481;22;20030;-84
2022/04/23 12:02:29;;;;;;;4.88;2.17;;;18.50;76.90;;;;;;6307864;22;20333;-85
2022/04/23 12:04:59;;;;;;;3.55;2.42;;;18.70;74.90;;;;;;6280279;22;20016;-84
2022/04/23 12:07:26;;;;;;;3.30;2.50;;;18.80;72.40;;;;;;6307414;22;20081;-85
2022/04/23 12:09:54;;;;;;;2.90;2.20;;;18.60;72.20;;;;;;6280687;22;20255;-85
2022/04/23 12:12:29;;;;;;;3.55;2.38;;;18.70;73.70;;;;;;6308131;22;20030;-85
2022/04/23 12:15:04;;;;;;;3.30;2.35;;;18.80;73.30;;;;;;6307610;22;20020;-84
2022/04/23 12:17:31;;;;;;;2.65;1.65;;;18.80;74.50;;;;;;6307913;22;20450;-85
2022/04/23 12:19:59;;;;;;;4.78;2.80;;;18.80;76.80;;;;;;6307803;22;20019;-85
2022/04/23 12:22:30;;;;;;;3.35;2.17;;;18.90;72.60;;;;;;6280459;22;20065;-85
2022/04/23 12:25:18;;;;;;;4.05;2.72;;;18.90;74.90;;;;;;6308157;22;20015;-85
2022/04/23 12:27:55;;;;;;;8.25;2.35;;;18.80;72.80;;;;;;6308044;22;20333;-85
2022/04/23 12:41:55;;;;;;;3.78;2.00;;;19.20;70.10;;;;;;6307594;22;20023;-84
2022/04/23 12:44:23;;;;;;;2.47;1.85;;;19.10;67.90;;;;;;6308016;22;20053;-84
2022/04/23 12:47:03;;;;;;;2.58;1.40;;;19.10;66.70;;;;;;6280342;22;20018;-84
2022/04/23 12:49:52;;;;;;;2.88;1.83;;;19.10;68.70;;;;;;6307817;22;20021;-84
2022/04/23 12:52:22;;;;;;;3.17;2.25;;;19.20;68.80;;;;;;6307668;22;20026;-84
2022/04/23 12:55:18;;;;;;;2.88;1.88;;;19.20;69.10;;;;;;6307847;22;20090;-85
2022/04/23 12:57:49;;;;;;;2.97;1.85;;;19.20;67.80;;;;;;6279827;22;20023;-84
2022/04/23 13:00:25;;;;;;;3.42;1.70;;;19.20;67.70;;;;;;6279621;22;20016;-85
2022/04/23 13:02:58;;;;;;;2.40;1.33;;;19.40;65.10;;;;;;6307285;22;20019;-84
2022/04/23 13:05:25;;;;;;;2.22;1.50;;;19.30;65.30;;;;;;6279813;22;20077;-84
2022/04/23 13:10:36;;;;;;;2.43;1.50;;;19.40;67.20;;;;;;6307418;22;20015;-84
2022/04/23 13:13:09;;;;;;;3.55;1.50;;;19.40;63.70;;;;;;6307447;22;20274;-85
2022/04/23 13:15:43;;;;;;;3.75;2.08;;;19.50;64.30;;;;;;6275910;22;20019;-84
2022/04/23 13:18:09;;;;;;;3.07;1.63;;;19.50;63.30;;;;;;6307623;22;20522;-84
2022/04/23 13:20:35;;;;;;;2.33;1.38;;;19.50;64.70;;;;;;6307486;22;20266;-84
2022/04/23 13:23:01;;;;;;;2.35;2.08;;;19.50;63.20;;;;;;6279425;22;20454;-84
2022/04/23 13:25:29;;;;;;;1.95;1.20;;;19.60;63.70;;;;;;6307283;22;20018;-85
2022/04/23 13:27:54;;;;;;;3.55;1.27;;;19.60;66.00;;;;;;6306953;22;20023;-85
2022/04/23 13:30:20;;;;;;;3.78;1.52;;;19.50;63.30;;;;;;6307078;22;20015;-85
2022/04/23 13:32:49;;;;;;;6.00;1.60;;;19.60;63.90;;;;;;6279654;22;20030;-85
2022/04/23 13:35:15;;;;;;;1.50;1.05;;;19.50;61.30;;;;;;6307263;22;20019;-85